sensor_id;sensor_type;location;lat;lon;timestamp;pressure;altitude;pressure_sealevel;temperature;humidity
43814;BME280;29669;55.706;37.656;2023-04-29T00:01:36;99741.22;;;5.44;nan
43814;BME280;29669;55.706;37.656;2023-04-29T00:04:06;99732.50;;;5.36;nan
43814;BME280;29669;55.706;37.656;2023-04-29T00:06:36;99742.00;;;5.35;nan
43814;BME280;29669;55.706;37.656;2023-04-29T00:09:03;99732.50;;;5.36;nan
43814;BME280;29669;55.706;37.656;2023-04-29T00:11:31;99737.94;;;5.42;nan
43814;BME280;29669;55.706;37.656;2023-04-29T00:14:00;99745.53;;;5.44;nan
43814;BME280;29669;55.706;37.656;2023-04-29T00:16:28;99761.81;;;5.44;nan
43814;BME280;29669;55.706;37.656;2023-04-29T00:18:56;99742.00;;;5.35;nan
43814;BME280;29669;55.706;37.656;2023-04-29T00:21:24;99741.56;;;5.30;nan
43814;BME280;29669;55.706;37.656;2023-04-29T00:23:59;99726.25;;;5.29;nan
43814;BME280;29669;55.706;37.656;2023-04-29T00:26:27;99718.66;;;5.27;nan
43814;BME280;29669;55.706;37.656;2023-04-29T00:28:55;99717.16;;;5.25;nan
43814;BME280;29669;55.706;37.656;2023-04-29T00:31:24;99717.88;;;5.36;nan
43814;BME280;29669;55.706;37.656;2023-04-29T00:33:52;99718.69;;;5.37;nan
43814;BME280;29669;55.706;37.656;2023-04-29T00:36:20;99718.69;;;5.37;nan
43814;BME280;29669;55.706;37.656;2023-04-29T00:38:48;99718.56;;;5.38;nan
43814;BME280;29669;55.706;37.656;2023-04-29T00:41:16;99711.81;;;5.37;nan
43814;BME280;29669;55.706;37.656;2023-04-29T00:43:44;99721.81;;;5.40;nan
43814;BME280;29669;55.706;37.656;2023-04-29T00:46:12;99705.41;;;5.32;nan
43814;BME280;29669;55.706;37.656;2023-04-29T00:48:40;99702.72;;;5.33;nan
43814;BME280;29669;55.706;37.656;2023-04-29T00:51:08;99706.06;;;5.34;nan
43814;BME280;29669;55.706;37.656;2023-04-29T00:53:38;99699.00;;;5.26;nan
43814;BME280;29669;55.706;37.656;2023-04-29T00:56:06;99710.53;;;5.22;nan
43814;BME280;29669;55.706;37.656;2023-04-29T00:58:38;99707.09;;;5.12;nan
43814;BME280;29669;55.706;37.656;2023-04-29T01:01:06;99701.28;;;5.10;nan
43814;BME280;29669;55.706;37.656;2023-04-29T01:03:36;99697.50;;;5.14;nan
43814;BME280;29669;55.706;37.656;2023-04-29T01:06:15;99698.59;;;5.21;nan
43814;BME280;29669;55.706;37.656;2023-04-29T01:12:20;99692.94;;;5.27;nan
43814;BME280;29669;55.706;37.656;2023-04-29T01:15:08;99702.69;;;5.24;nan
43814;BME280;29669;55.706;37.656;2023-04-29T01:17:43;99725.00;;;5.23;nan
43814;BME280;29669;55.706;37.656;2023-04-29T01:20:12;99720.38;;;5.17;nan
43814;BME280;29669;55.706;37.656;2023-04-29T01:22:41;99705.47;;;5.11;nan
43814;BME280;29669;55.706;37.656;2023-04-29T01:25:10;99716.84;;;5.09;nan
43814;BME280;29669;55.706;37.656;2023-04-29T01:28:42;99723.22;;;5.14;nan
43814;BME280;29669;55.706;37.656;2023-04-29T01:31:24;99714.97;;;5.11;nan
43814;BME280;29669;55.706;37.656;2023-04-29T01:34:00;99709.00;;;5.10;nan
43814;BME280;29669;55.706;37.656;2023-04-29T01:36:59;99701.28;;;5.10;nan
43814;BME280;29669;55.706;37.656;2023-04-29T01:40:00;99718.31;;;5.11;nan
43814;BME280;29669;55.706;37.656;2023-04-29T01:43:07;99702.19;;;5.09;nan
43814;BME280;29669;55.706;37.656;2023-04-29T01:45:45;99711.56;;;5.10;nan
43814;BME280;29669;55.706;37.656;2023-04-29T01:48:17;99710.59;;;5.11;nan
43814;BME280;29669;55.706;37.656;2023-04-29T01:50:46;99697.34;;;5.06;nan
43814;BME280;29669;55.706;37.656;2023-04-29T01:53:16;99706.94;;;5.04;nan
43814;BME280;29669;55.706;37.656;2023-04-29T01:55:48;99717.03;;;4.96;nan
43814;BME280;29669;55.706;37.656;2023-04-29T01:58:19;99711.91;;;4.96;nan
43814;BME280;29669;55.706;37.656;2023-04-29T02:00:53;99722.44;;;4.93;nan
43814;BME280;29669;55.706;37.656;2023-04-29T02:03:22;99720.00;;;4.92;nan
43814;BME280;29669;55.706;37.656;2023-04-29T02:05:55;99725.28;;;4.90;nan
43814;BME280;29669;55.706;37.656;2023-04-29T02:08:24;99717.59;;;4.90;nan
43814;BME280;29669;55.706;37.656;2023-04-29T02:10:55;99723.19;;;5.05;nan
43814;BME280;29669;55.706;37.656;2023-04-29T02:13:31;99711.69;;;5.09;nan
43814;BME280;29669;55.706;37.656;2023-04-29T02:16:10;99714.28;;;5.09;nan
43814;BME280;29669;55.706;37.656;2023-04-29T02:18:43;99720.53;;;5.16;nan
43814;BME280;29669;55.706;37.656;2023-04-29T02:21:12;99705.59;;;5.10;nan
43814;BME280;29669;55.706;37.656;2023-04-29T02:23:40;99713.72;;;5.05;nan
43814;BME280;29669;55.706;37.656;2023-04-29T02:26:08;99715.06;;;5.09;nan
43814;BME280;29669;55.706;37.656;2023-04-29T02:28:37;99723.88;;;5.07;nan
43814;BME280;29669;55.706;37.656;2023-04-29T02:31:05;99717.50;;;5.01;nan
43814;BME280;29669;55.706;37.656;2023-04-29T02:33:34;99730.50;;;5.09;nan
43814;BME280;29669;55.706;37.656;2023-04-29T02:36:03;99722.63;;;5.01;nan
43814;BME280;29669;55.706;37.656;2023-04-29T02:38:31;99737.63;;;4.96;nan
43814;BME280;29669;55.706;37.656;2023-04-29T02:40:59;99736.81;;;4.96;nan
43814;BME280;29669;55.706;37.656;2023-04-29T02:43:28;99746.94;;;4.88;nan
43814;BME280;29669;55.706;37.656;2023-04-29T02:45:58;99750.41;;;4.87;nan
43814;BME280;29669;55.706;37.656;2023-04-29T02:48:27;99759.91;;;4.86;nan
43814;BME280;29669;55.706;37.656;2023-04-29T02:50:55;99764.88;;;4.78;nan
43814;BME280;29669;55.706;37.656;2023-04-29T02:53:24;99768.81;;;4.82;nan
43814;BME280;29669;55.706;37.656;2023-04-29T02:55:52;99775.97;;;4.78;nan
43814;BME280;29669;55.706;37.656;2023-04-29T02:58:21;99772.09;;;4.84;nan
43814;BME280;29669;55.706;37.656;2023-04-29T03:00:49;99781.47;;;4.74;nan
43814;BME280;29669;55.706;37.656;2023-04-29T03:03:17;99779.88;;;4.73;nan
43814;BME280;29669;55.706;37.656;2023-04-29T03:05:46;99784.13;;;4.63;nan
43814;BME280;29669;55.706;37.656;2023-04-29T03:08:15;99794.41;;;4.63;nan
43814;BME280;29669;55.706;37.656;2023-04-29T03:10:44;99811.00;;;4.59;nan
43814;BME280;29669;55.706;37.656;2023-04-29T03:13:13;99804.88;;;4.50;nan
43814;BME280;29669;55.706;37.656;2023-04-29T03:15:45;99806.16;;;4.45;nan
43814;BME280;29669;55.706;37.656;2023-04-29T03:18:14;99821.66;;;4.54;nan
43814;BME280;29669;55.706;37.656;2023-04-29T03:20:42;99818.59;;;4.60;nan
43814;BME280;29669;55.706;37.656;2023-04-29T03:23:11;99816.41;;;4.56;nan
43814;BME280;29669;55.706;37.656;2023-04-29T03:25:41;99836.03;;;4.57;nan
43814;BME280;29669;55.706;37.656;2023-04-29T03:28:10;99826.00;;;4.43;nan
43814;BME280;29669;55.706;37.656;2023-04-29T03:30:38;99835.38;;;4.44;nan
43814;BME280;29669;55.706;37.656;2023-04-29T03:33:06;99836.69;;;4.38;nan
43814;BME280;29669;55.706;37.656;2023-04-29T03:35:34;99830.03;;;4.36;nan
43814;BME280;29669;55.706;37.656;2023-04-29T03:38:26;99830.72;;;4.38;nan
43814;BME280;29669;55.706;37.656;2023-04-29T03:40:54;99834.69;;;4.42;nan
43814;BME280;29669;55.706;37.656;2023-04-29T03:43:23;99834.06;;;4.49;nan
43814;BME280;29669;55.706;37.656;2023-04-29T03:45:51;99848.88;;;4.57;nan
43814;BME280;29669;55.706;37.656;2023-04-29T03:48:21;99854.22;;;4.65;nan
43814;BME280;29669;55.706;37.656;2023-04-29T03:50:51;99847.06;;;4.68;nan
43814;BME280;29669;55.706;37.656;2023-04-29T03:53:22;99861.81;;;4.66;nan
43814;BME280;29669;55.706;37.656;2023-04-29T03:55:51;99850.88;;;4.53;nan
43814;BME280;29669;55.706;37.656;2023-04-29T03:58:19;99865.84;;;4.48;nan
43814;BME280;29669;55.706;37.656;2023-04-29T04:00:47;99865.94;;;4.47;nan
43814;BME280;29669;55.706;37.656;2023-04-29T04:03:21;99863.16;;;4.50;nan
43814;BME280;29669;55.706;37.656;2023-04-29T04:05:54;99868.75;;;4.55;nan
43814;BME280;29669;55.706;37.656;2023-04-29T04:08:22;99854.06;;;4.46;nan
43814;BME280;29669;55.706;37.656;2023-04-29T04:10:54;99848.91;;;4.46;nan
43814;BME280;29669;55.706;37.656;2023-04-29T04:13:34;99865.25;;;4.45;nan
43814;BME280;29669;55.706;37.656;2023-04-29T04:16:04;99862.47;;;4.48;nan
43814;BME280;29669;55.706;37.656;2023-04-29T04:18:32;99862.78;;;4.54;nan
43814;BME280;29669;55.706;37.656;2023-04-29T04:21:10;99855.53;;;4.59;nan
43814;BME280;29669;55.706;37.656;2023-04-29T04:23:43;99869.09;;;4.61;nan
43814;BME280;29669;55.706;37.656;2023-04-29T04:26:14;99861.25;;;4.63;nan
43814;BME280;29669;55.706;37.656;2023-04-29T04:28:57;99862.63;;;4.67;nan
43814;BME280;29669;55.706;37.656;2023-04-29T04:31:52;99868.94;;;4.63;nan
43814;BME280;29669;55.706;37.656;2023-04-29T04:34:21;99858.75;;;4.72;nan
43814;BME280;29669;55.706;37.656;2023-04-29T04:36:51;99855.56;;;4.80;nan
43814;BME280;29669;55.706;37.656;2023-04-29T04:39:21;99859.31;;;4.76;nan
43814;BME280;29669;55.706;37.656;2023-04-29T04:41:51;99861.13;;;4.85;nan
43814;BME280;29669;55.706;37.656;2023-04-29T04:44:20;99860.22;;;4.86;nan
43814;BME280;29669;55.706;37.656;2023-04-29T04:47:01;99860.38;;;4.94;nan
43814;BME280;29669;55.706;37.656;2023-04-29T04:49:42;99854.25;;;5.06;nan
43814;BME280;29669;55.706;37.656;2023-04-29T04:52:11;99837.91;;;5.17;nan
43814;BME280;29669;55.706;37.656;2023-04-29T04:54:44;99844.16;;;5.44;nan
43814;BME280;29669;55.706;37.656;2023-04-29T04:57:17;99860.25;;;5.67;nan
43814;BME280;29669;55.706;37.656;2023-04-29T04:59:45;99873.28;;;5.65;nan
43814;BME280;29669;55.706;37.656;2023-04-29T05:02:14;99864.25;;;5.50;nan
43814;BME280;29669;55.706;37.656;2023-04-29T05:04:42;99872.66;;;5.52;nan
43814;BME280;29669;55.706;37.656;2023-04-29T05:07:13;99860.50;;;5.64;nan
43814;BME280;29669;55.706;37.656;2023-04-29T05:10:00;99869.13;;;5.53;nan
43814;BME280;29669;55.706;37.656;2023-04-29T05:12:30;99868.88;;;5.56;nan
43814;BME280;29669;55.706;37.656;2023-04-29T05:15:00;99858.84;;;5.53;nan
43814;BME280;29669;55.706;37.656;2023-04-29T05:17:30;99863.84;;;5.55;nan
43814;BME280;29669;55.706;37.656;2023-04-29T05:19:58;99858.56;;;5.47;nan
43814;BME280;29669;55.706;37.656;2023-04-29T05:22:26;99881.09;;;5.54;nan
43814;BME280;29669;55.706;37.656;2023-04-29T05:24:54;99874.00;;;5.56;nan
43814;BME280;29669;55.706;37.656;2023-04-29T05:27:33;99881.22;;;5.62;nan
43814;BME280;29669;55.706;37.656;2023-04-29T05:30:06;99878.94;;;5.59;nan
43814;BME280;29669;55.706;37.656;2023-04-29T05:32:34;99875.66;;;5.57;nan
43814;BME280;29669;55.706;37.656;2023-04-29T05:35:04;99880.00;;;5.57;nan
43814;BME280;29669;55.706;37.656;2023-04-29T05:37:34;99877.41;;;5.57;nan
43814;BME280;29669;55.706;37.656;2023-04-29T05:40:12;99863.72;;;5.56;nan
43814;BME280;29669;55.706;37.656;2023-04-29T05:42:41;99875.44;;;5.70;nan
43814;BME280;29669;55.706;37.656;2023-04-29T05:45:11;99874.38;;;5.72;nan
43814;BME280;29669;55.706;37.656;2023-04-29T05:47:39;99890.19;;;5.89;nan
43814;BME280;29669;55.706;37.656;2023-04-29T05:50:07;99911.91;;;5.96;nan
43814;BME280;29669;55.706;37.656;2023-04-29T05:52:36;99907.06;;;6.12;nan
43814;BME280;29669;55.706;37.656;2023-04-29T05:55:05;99900.19;;;6.22;nan
43814;BME280;29669;55.706;37.656;2023-04-29T05:57:33;99892.22;;;6.34;nan
43814;BME280;29669;55.706;37.656;2023-04-29T06:00:02;99892.22;;;6.44;nan
43814;BME280;29669;55.706;37.656;2023-04-29T06:02:40;99912.19;;;6.61;nan
43814;BME280;29669;55.706;37.656;2023-04-29T06:05:22;99900.94;;;6.52;nan
43814;BME280;29669;55.706;37.656;2023-04-29T06:08:07;99911.28;;;6.62;nan
43814;BME280;29669;55.706;37.656;2023-04-29T06:11:03;99920.50;;;6.84;nan
43814;BME280;29669;55.706;37.656;2023-04-29T06:13:35;99927.16;;;7.05;nan
43814;BME280;29669;55.706;37.656;2023-04-29T06:16:18;99916.56;;;7.18;nan
43814;BME280;29669;55.706;37.656;2023-04-29T06:18:53;99923.72;;;7.43;nan
43814;BME280;29669;55.706;37.656;2023-04-29T06:21:23;99934.25;;;7.69;nan
43814;BME280;29669;55.706;37.656;2023-04-29T06:23:52;99928.50;;;7.84;nan
43814;BME280;29669;55.706;37.656;2023-04-29T06:26:21;99937.75;;;7.87;nan
43814;BME280;29669;55.706;37.656;2023-04-29T06:28:50;99938.28;;;7.90;nan
43814;BME280;29669;55.706;37.656;2023-04-29T06:31:19;99923.34;;;7.84;nan
43814;BME280;29669;55.706;37.656;2023-04-29T06:33:51;99939.47;;;7.96;nan
43814;BME280;29669;55.706;37.656;2023-04-29T06:36:20;99939.63;;;7.94;nan
43814;BME280;29669;55.706;37.656;2023-04-29T06:39:18;99949.06;;;8.13;nan
43814;BME280;29669;55.706;37.656;2023-04-29T06:42:07;99949.38;;;8.37;nan
43814;BME280;29669;55.706;37.656;2023-04-29T06:45:09;99949.28;;;8.56;nan
43814;BME280;29669;55.706;37.656;2023-04-29T06:47:58;99944.88;;;8.84;nan
43814;BME280;29669;55.706;37.656;2023-04-29T06:50:38;99954.31;;;9.28;nan
43814;BME280;29669;55.706;37.656;2023-04-29T06:53:06;99958.94;;;9.60;nan
43814;BME280;29669;55.706;37.656;2023-04-29T06:55:34;99953.81;;;9.68;nan
43814;BME280;29669;55.706;37.656;2023-04-29T06:58:03;99954.31;;;9.71;nan
43814;BME280;29669;55.706;37.656;2023-04-29T07:00:31;99965.34;;;9.99;nan
43814;BME280;29669;55.706;37.656;2023-04-29T07:02:59;99966.97;;;10.25;nan
43814;BME280;29669;55.706;37.656;2023-04-29T07:05:28;99966.91;;;10.59;nan
43814;BME280;29669;55.706;37.656;2023-04-29T07:07:56;99970.16;;;10.61;nan
43814;BME280;29669;55.706;37.656;2023-04-29T07:10:24;99978.50;;;10.39;nan
43814;BME280;29669;55.706;37.656;2023-04-29T07:12:55;99967.78;;;10.34;nan
43814;BME280;29669;55.706;37.656;2023-04-29T07:15:23;99985.47;;;10.30;nan
43814;BME280;29669;55.706;37.656;2023-04-29T07:17:52;99977.63;;;10.22;nan
43814;BME280;29669;55.706;37.656;2023-04-29T07:20:20;99982.41;;;10.35;nan
43814;BME280;29669;55.706;37.656;2023-04-29T07:22:52;99980.28;;;10.30;nan
43814;BME280;29669;55.706;37.656;2023-04-29T07:25:20;99980.72;;;10.18;nan
43814;BME280;29669;55.706;37.656;2023-04-29T07:27:59;99991.25;;;10.24;nan
43814;BME280;29669;55.706;37.656;2023-04-29T07:30:27;99995.25;;;10.11;nan
43814;BME280;29669;55.706;37.656;2023-04-29T07:32:56;99999.00;;;10.16;nan
43814;BME280;29669;55.706;37.656;2023-04-29T07:35:25;99993.19;;;10.22;nan
43814;BME280;29669;55.706;37.656;2023-04-29T07:37:54;99993.03;;;10.16;nan
43814;BME280;29669;55.706;37.656;2023-04-29T07:40:25;99998.81;;;10.10;nan
43814;BME280;29669;55.706;37.656;2023-04-29T07:42:57;99999.06;;;9.99;nan
43814;BME280;29669;55.706;37.656;2023-04-29T07:45:25;100006.22;;;10.05;nan
43814;BME280;29669;55.706;37.656;2023-04-29T07:47:53;100007.03;;;10.39;nan
43814;BME280;29669;55.706;37.656;2023-04-29T07:50:21;100013.63;;;10.59;nan
43814;BME280;29669;55.706;37.656;2023-04-29T07:52:49;100025.75;;;10.84;nan
43814;BME280;29669;55.706;37.656;2023-04-29T07:55:19;100014.38;;;10.93;nan
43814;BME280;29669;55.706;37.656;2023-04-29T07:57:47;100016.34;;;11.07;nan
43814;BME280;29669;55.706;37.656;2023-04-29T08:00:17;100022.25;;;11.33;nan
43814;BME280;29669;55.706;37.656;2023-04-29T08:02:53;100016.41;;;11.56;nan
43814;BME280;29669;55.706;37.656;2023-04-29T08:05:23;100030.72;;;11.68;nan
43814;BME280;29669;55.706;37.656;2023-04-29T08:07:52;100027.47;;;11.74;nan
43814;BME280;29669;55.706;37.656;2023-04-29T08:10:20;100025.50;;;11.84;nan
43814;BME280;29669;55.706;37.656;2023-04-29T08:12:50;100030.19;;;11.96;nan
43814;BME280;29669;55.706;37.656;2023-04-29T08:15:18;100025.81;;;11.97;nan
43814;BME280;29669;55.706;37.656;2023-04-29T08:17:47;100044.06;;;11.73;nan
43814;BME280;29669;55.706;37.656;2023-04-29T08:20:17;100038.47;;;11.27;nan
43814;BME280;29669;55.706;37.656;2023-04-29T08:22:45;100042.00;;;11.02;nan
43814;BME280;29669;55.706;37.656;2023-04-29T08:25:15;100044.75;;;11.01;nan
43814;BME280;29669;55.706;37.656;2023-04-29T08:27:44;100052.78;;;11.39;nan
43814;BME280;29669;55.706;37.656;2023-04-29T08:30:13;100055.09;;;11.75;nan
43814;BME280;29669;55.706;37.656;2023-04-29T08:32:41;100041.28;;;11.74;nan
43814;BME280;29669;55.706;37.656;2023-04-29T08:35:09;100049.88;;;11.83;nan
43814;BME280;29669;55.706;37.656;2023-04-29T08:37:37;100043.38;;;12.03;nan
43814;BME280;29669;55.706;37.656;2023-04-29T08:40:07;100048.88;;;12.24;nan
43814;BME280;29669;55.706;37.656;2023-04-29T08:42:36;100035.88;;;12.00;nan
43814;BME280;29669;55.706;37.656;2023-04-29T08:45:04;100048.53;;;12.27;nan
43814;BME280;29669;55.706;37.656;2023-04-29T08:47:33;100049.81;;;12.31;nan
43814;BME280;29669;55.706;37.656;2023-04-29T08:50:03;100044.84;;;12.05;nan
43814;BME280;29669;55.706;37.656;2023-04-29T08:52:32;100058.00;;;12.04;nan
43814;BME280;29669;55.706;37.656;2023-04-29T08:55:00;100049.75;;;11.76;nan
43814;BME280;29669;55.706;37.656;2023-04-29T08:57:34;100055.22;;;11.33;nan
43814;BME280;29669;55.706;37.656;2023-04-29T09:00:07;100059.22;;;11.11;nan
43814;BME280;29669;55.706;37.656;2023-04-29T09:02:42;100062.09;;;10.92;nan
43814;BME280;29669;55.706;37.656;2023-04-29T09:05:11;100055.44;;;10.90;nan
43814;BME280;29669;55.706;37.656;2023-04-29T09:07:40;100069.94;;;11.08;nan
43814;BME280;29669;55.706;37.656;2023-04-29T09:10:09;100057.47;;;11.36;nan
43814;BME280;29669;55.706;37.656;2023-04-29T09:12:37;100057.53;;;11.84;nan
43814;BME280;29669;55.706;37.656;2023-04-29T09:15:05;100048.88;;;12.24;nan
43814;BME280;29669;55.706;37.656;2023-04-29T09:17:46;100055.59;;;12.49;nan
43814;BME280;29669;55.706;37.656;2023-04-29T09:22:52;100073.69;;;12.51;nan
43814;BME280;29669;55.706;37.656;2023-04-29T09:25:20;100081.69;;;12.41;nan
43814;BME280;29669;55.706;37.656;2023-04-29T09:27:48;100075.38;;;12.19;nan
43814;BME280;29669;55.706;37.656;2023-04-29T09:30:16;100072.50;;;11.90;nan
43814;BME280;29669;55.706;37.656;2023-04-29T09:32:44;100071.03;;;11.88;nan
43814;BME280;29669;55.706;37.656;2023-04-29T09:35:21;100085.97;;;12.10;nan
43814;BME280;29669;55.706;37.656;2023-04-29T09:37:51;100063.00;;;12.29;nan
43814;BME280;29669;55.706;37.656;2023-04-29T09:40:32;100064.56;;;12.55;nan
43814;BME280;29669;55.706;37.656;2023-04-29T09:43:12;100071.88;;;12.51;nan
43814;BME280;29669;55.706;37.656;2023-04-29T09:45:45;100088.84;;;12.39;nan
43814;BME280;29669;55.706;37.656;2023-04-29T09:48:14;100084.31;;;12.17;nan
43814;BME280;29669;55.706;37.656;2023-04-29T09:50:43;100076.88;;;11.98;nan
43814;BME280;29669;55.706;37.656;2023-04-29T09:53:27;100089.25;;;11.96;nan
43814;BME280;29669;55.706;37.656;2023-04-29T09:56:01;100097.34;;;12.01;nan
43814;BME280;29669;55.706;37.656;2023-04-29T09:58:32;100103.69;;;12.06;nan
43814;BME280;29669;55.706;37.656;2023-04-29T10:01:04;100109.72;;;11.91;nan
43814;BME280;29669;55.706;37.656;2023-04-29T10:03:34;100106.63;;;11.71;nan
43814;BME280;29669;55.706;37.656;2023-04-29T10:06:04;100118.31;;;11.83;nan
43814;BME280;29669;55.706;37.656;2023-04-29T10:08:33;100104.69;;;11.89;nan
43814;BME280;29669;55.706;37.656;2023-04-29T10:11:02;100095.09;;;11.90;nan
43814;BME280;29669;55.706;37.656;2023-04-29T10:13:33;100100.59;;;11.95;nan
43814;BME280;29669;55.706;37.656;2023-04-29T10:18:34;100105.69;;;12.59;nan
43814;BME280;29669;55.706;37.656;2023-04-29T10:21:06;100099.09;;;12.79;nan
43814;BME280;29669;55.706;37.656;2023-04-29T10:23:36;100106.22;;;13.09;nan
43814;BME280;29669;55.706;37.656;2023-04-29T10:26:04;100110.34;;;13.27;nan
43814;BME280;29669;55.706;37.656;2023-04-29T10:28:34;100110.47;;;13.33;nan
43814;BME280;29669;55.706;37.656;2023-04-29T10:31:05;100106.63;;;13.44;nan
43814;BME280;29669;55.706;37.656;2023-04-29T10:33:34;100101.72;;;13.49;nan
43814;BME280;29669;55.706;37.656;2023-04-29T10:36:03;100107.63;;;13.65;nan
43814;BME280;29669;55.706;37.656;2023-04-29T10:38:38;100113.22;;;13.85;nan
43814;BME280;29669;55.706;37.656;2023-04-29T10:41:24;100127.59;;;13.81;nan
43814;BME280;29669;55.706;37.656;2023-04-29T10:43:54;100130.66;;;13.84;nan
43814;BME280;29669;55.706;37.656;2023-04-29T10:46:23;100130.69;;;13.99;nan
43814;BME280;29669;55.706;37.656;2023-04-29T10:49:00;100134.50;;;14.11;nan
43814;BME280;29669;55.706;37.656;2023-04-29T10:54:06;100135.16;;;14.50;nan
43814;BME280;29669;55.706;37.656;2023-04-29T10:56:48;100136.50;;;14.75;nan
43814;BME280;29669;55.706;37.656;2023-04-29T10:59:22;100142.75;;;14.89;nan
43814;BME280;29669;55.706;37.656;2023-04-29T11:02:09;100135.31;;;15.07;nan
43814;BME280;29669;55.706;37.656;2023-04-29T11:05:06;100140.16;;;15.25;nan
43814;BME280;29669;55.706;37.656;2023-04-29T11:07:34;100145.88;;;15.14;nan
43814;BME280;29669;55.706;37.656;2023-04-29T11:10:02;100151.56;;;14.88;nan
43814;BME280;29669;55.706;37.656;2023-04-29T11:12:30;100149.94;;;14.87;nan
43814;BME280;29669;55.706;37.656;2023-04-29T11:14:58;100145.31;;;15.03;nan
43814;BME280;29669;55.706;37.656;2023-04-29T11:17:35;100159.91;;;15.13;nan
43814;BME280;29669;55.706;37.656;2023-04-29T11:20:10;100154.25;;;15.09;nan
43814;BME280;29669;55.706;37.656;2023-04-29T11:22:39;100153.16;;;15.03;nan
43814;BME280;29669;55.706;37.656;2023-04-29T11:25:09;100148.81;;;15.10;nan
43814;BME280;29669;55.706;37.656;2023-04-29T11:27:39;100154.41;;;15.22;nan
43814;BME280;29669;55.706;37.656;2023-04-29T11:30:09;100149.44;;;15.27;nan
43814;BME280;29669;55.706;37.656;2023-04-29T11:32:39;100147.16;;;15.53;nan
43814;BME280;29669;55.706;37.656;2023-04-29T11:35:13;100149.34;;;15.71;nan
43814;BME280;29669;55.706;37.656;2023-04-29T11:37:42;100151.31;;;15.48;nan
43814;BME280;29669;55.706;37.656;2023-04-29T11:40:12;100158.81;;;15.36;nan
43814;BME280;29669;55.706;37.656;2023-04-29T11:42:43;100156.47;;;15.41;nan
43814;BME280;29669;55.706;37.656;2023-04-29T11:45:12;100164.03;;;15.51;nan
43814;BME280;29669;55.706;37.656;2023-04-29T11:47:44;100153.66;;;15.43;nan
43814;BME280;29669;55.706;37.656;2023-04-29T11:50:15;100154.44;;;15.58;nan
43814;BME280;29669;55.706;37.656;2023-04-29T11:52:46;100158.00;;;15.92;nan
43814;BME280;29669;55.706;37.656;2023-04-29T11:55:14;100152.53;;;16.09;nan
43814;BME280;29669;55.706;37.656;2023-04-29T11:57:43;100145.72;;;16.14;nan
43814;BME280;29669;55.706;37.656;2023-04-29T12:00:12;100137.19;;;16.33;nan
43814;BME280;29669;55.706;37.656;2023-04-29T12:02:44;100133.84;;;16.73;nan
43814;BME280;29669;55.706;37.656;2023-04-29T12:05:15;100138.22;;;17.01;nan
43814;BME280;29669;55.706;37.656;2023-04-29T12:07:45;100124.97;;;17.09;nan
43814;BME280;29669;55.706;37.656;2023-04-29T12:10:15;100137.78;;;16.90;nan
43814;BME280;29669;55.706;37.656;2023-04-29T12:12:43;100137.41;;;16.59;nan
43814;BME280;29669;55.706;37.656;2023-04-29T12:15:12;100134.78;;;16.59;nan
43814;BME280;29669;55.706;37.656;2023-04-29T12:17:41;100145.63;;;16.84;nan
43814;BME280;29669;55.706;37.656;2023-04-29T12:20:10;100142.94;;;16.77;nan
43814;BME280;29669;55.706;37.656;2023-04-29T12:22:38;100147.31;;;16.64;nan
43814;BME280;29669;55.706;37.656;2023-04-29T12:25:06;100139.34;;;16.51;nan
43814;BME280;29669;55.706;37.656;2023-04-29T12:27:35;100140.28;;;16.43;nan
43814;BME280;29669;55.706;37.656;2023-04-29T12:30:07;100135.44;;;16.40;nan
43814;BME280;29669;55.706;37.656;2023-04-29T12:32:36;100132.84;;;16.47;nan
43814;BME280;29669;55.706;37.656;2023-04-29T12:35:05;100138.78;;;16.55;nan
43814;BME280;29669;55.706;37.656;2023-04-29T12:37:33;100139.31;;;16.44;nan
43814;BME280;29669;55.706;37.656;2023-04-29T12:40:02;100145.19;;;16.25;nan
43814;BME280;29669;55.706;37.656;2023-04-29T12:42:34;100145.47;;;15.88;nan
43814;BME280;29669;55.706;37.656;2023-04-29T12:45:05;100152.94;;;15.49;nan
43814;BME280;29669;55.706;37.656;2023-04-29T12:47:33;100144.94;;;15.21;nan
43814;BME280;29669;55.706;37.656;2023-04-29T12:50:02;100144.41;;;15.11;nan
43814;BME280;29669;55.706;37.656;2023-04-29T12:52:30;100150.19;;;15.06;nan
43814;BME280;29669;55.706;37.656;2023-04-29T12:54:58;100154.81;;;14.90;nan
43814;BME280;29669;55.706;37.656;2023-04-29T12:57:27;100149.84;;;14.80;nan
43814;BME280;29669;55.706;37.656;2023-04-29T12:59:54;100153.09;;;14.82;nan
43814;BME280;29669;55.706;37.656;2023-04-29T13:02:22;100139.38;;;14.80;nan
43814;BME280;29669;55.706;37.656;2023-04-29T13:04:50;100135.69;;;15.04;nan
43814;BME280;29669;55.706;37.656;2023-04-29T13:09:46;100129.72;;;18.96;nan
43814;BME280;29669;55.706;37.656;2023-04-29T13:12:16;100127.06;;;19.78;nan
43814;BME280;29669;55.706;37.656;2023-04-29T13:14:44;100123.03;;;20.86;nan
43814;BME280;29669;55.706;37.656;2023-04-29T13:17:12;100118.00;;;21.80;nan
43814;BME280;29669;55.706;37.656;2023-04-29T13:19:40;100123.81;;;21.40;nan
43814;BME280;29669;55.706;37.656;2023-04-29T13:22:18;100128.34;;;20.25;nan
43814;BME280;29669;55.706;37.656;2023-04-29T13:24:46;100130.31;;;18.98;nan
43814;BME280;29669;55.706;37.656;2023-04-29T13:27:14;100123.16;;;18.02;nan
43814;BME280;29669;55.706;37.656;2023-04-29T13:29:42;100124.34;;;17.67;nan
43814;BME280;29669;55.706;37.656;2023-04-29T13:32:10;100124.75;;;16.69;nan
43814;BME280;29669;55.706;37.656;2023-04-29T13:34:38;100129.44;;;15.97;nan
43814;BME280;29669;55.706;37.656;2023-04-29T13:37:10;100138.13;;;15.98;nan
43814;BME280;29669;55.706;37.656;2023-04-29T13:39:38;100114.84;;;17.66;nan
43814;BME280;29669;55.706;37.656;2023-04-29T13:42:06;100131.41;;;17.60;nan
43814;BME280;29669;55.706;37.656;2023-04-29T13:44:35;100122.53;;;16.66;nan
43814;BME280;29669;55.706;37.656;2023-04-29T13:47:18;100136.09;;;15.72;nan
43814;BME280;29669;55.706;37.656;2023-04-29T13:49:52;100138.31;;;15.96;nan